Ana Sayfa
METAR-TAF:

METAR-TAF

Havaalanları :

Bağdat Uluslararası Havaalanı

Bağdat, Irak

Enlem: 33-15-45N, Boylam: 44-14-04E, yükseklik: 35 m

Güncel hava durumu gözlemi

Rapor saat 13:00 UTC de 1 saat ve 1 dakika önce yapıldı.
Rüzgar kuzeydoğudan 9 kt
Sıcaklık 29°C
Nem 37%
Basınç 1014 hPa
Görüş mesafesi 10 km veya daha fazla
3000 ft yükseklikte çok bulutlu

METAR: ORBI 191300Z 04009KT 9999 OVC030 29/13 Q1014 NOSIG

Saat: 17:01 (14:01 UTC)

Tahmin

Rapor saat 11:00 UTC de 3 saat ve 1 dakika önce yapıldı.
Ayın 19'si saat 12 UTC'den ayın 20'si saat 12 UTC'ye kadar geçerli Tahmin
Rüzgar doğu/kuzeydoğudan 13 kt
Görüş mesafesi: 7000 m
3000 ft yükseklikte parçalı çok bulutlu
Geçici
ayın 19'si saat 12 UTC'den ayın 19'si saat 18 UTC'ye kadar
Rüzgar doğu/kuzeydoğudan 13 kt ve 23 kt'a kadar ani rüzgarlar
Görüş mesafesi: 5000 m
2500 ft yükseklikte az bulutlu, Kümülonimbus.

TAF: ORBI 191100Z 1912/2012 07013KT 7000 BKN030 TEMPO 1912/1918 07013G23KT 5000 -TSSHRA FEW025CB

4.000'den fazla havaalanı için hava durumu gözlemleri ve tahminleri (METAR ve TAF raporları).

Kullanılabilir istasyonlar harita üzerinde sarı ve kırmızı noktalarla gösterilir.

İstasyonun adını görmek için fareyi noktanın üzerinde gezdirin.

Sonrasında hava gözlem ve tahminlerini görmek için tıklayın.

Haritayı değiştirmek için: yaklaştırmak için siyah artı işaretli yeşil düğmeye ve uzaklaştırmak için de eksi işaretli düğmeye hızla tıklayın; bitişik haritalar için yeşil okları kullanın.


METAR-TAF: